Marfret Guyane — FNMV — position and weather

sailwx.info

Track history (hours):
 
Tides and Currents Weather Stations Pressure Air Temp Water Temp Dewpoint Dewpoint Depression Visibility Wind Speed Wind Dir Waves Ship Positions

Marfret Guyane

Last reported at 2014-Nov-22 17:30 UTC. Time now 2014-Nov-27 05:39 UTC.
Position N 17°54' W 063°05'.

Length 170 m; draft 8.6 m.

Type: Ship (hazmat cat A). MMSI: 226324000.

Date/timePositionNaut miles runAvg speedWind from/ knotsBaromVisibWave heightAir tempDewpointWater temp
2014-Nov-22 17:30N 17°54' W 063°05'  
2014-Nov-17 04:34N 36°13' W 027°51'1918.9
2014-Nov-17 03:33N 36°23' W 027°31'2018.8
2014-Nov-17 02:31N 36°33' W 027°10'1818.8
2014-Nov-17 01:33N 36°42' W 026°50'1918.8
2014-Nov-17 00:33N 36°52' W 026°30'1918.6
2014-Nov-16 23:34N 37°01' W 026°10'1918.7
2014-Nov-16 22:34N 37°11' W 025°50'1918.6
2014-Nov-16 21:33N 37°20' W 025°30'1918.7
2014-Nov-16 20:34N 37°29' W 025°09'1918.6
2014-Nov-16 19:34N 37°41' W 024°51'1919.0
2014-Nov-16 18:34N 37°53' W 024°32'1919.1
2014-Nov-16 17:34N 38°05' W 024°13'  
2014-Nov-13 16:23N 50°00' W 002°58'1315.6
2014-Nov-13 15:33N 50°04' W 002°39'7414.6
2014-Nov-13 10:29N 49°44' W 000°49'1415.5
2014-Nov-13 09:33N 49°38' W 000°29'1616.1
2014-Nov-13 08:34N 49°31' W 000°06'1110.6
2014-Nov-13 07:33N 49°28' E 000°10'0 0.3
2014-Nov-13 06:28N 49°29' E 000°10'0 0.0
2014-Nov-13 05:19N 49°29' E 000°10'0 0.0
2014-Nov-13 04:31N 49°29' E 000°10'0 0.0
2014-Nov-13 03:28N 49°29' E 000°10'0 0.0
2014-Nov-13 02:31N 49°29' E 000°10'0 0.0
2014-Nov-13 01:31N 49°29' E 000°10'0 0.0
2014-Nov-13 00:31N 49°29' E 000°10'0 0.0
2014-Nov-12 23:31N 49°29' E 000°10'0 0.0
2014-Nov-12 22:31N 49°29' E 000°10'  
Track history (hours):
 
Tides and Currents Weather Stations Pressure Air Temp Water Temp Dewpoint Dewpoint Depression Visibility Wind Speed Wind Dir Waves Ship Positions

Marfret Guyane

Last reported at 2014-Nov-22 17:30 UTC. Time now 2014-Nov-27 05:39 UTC.
Position N 17°54' W 063°05'.

Length 170 m; draft 8.6 m.

Type: Ship (hazmat cat A). MMSI: 226324000.

Date/timePositionNaut miles runAvg speedWind from/ knotsBaromVisibWave heightAir tempDewpointWater temp
2014-Nov-22 17:30N 17°54' W 063°05'  
2014-Nov-17 04:34N 36°13' W 027°51'1918.9
2014-Nov-17 03:33N 36°23' W 027°31'2018.8
2014-Nov-17 02:31N 36°33' W 027°10'1818.8
2014-Nov-17 01:33N 36°42' W 026°50'1918.8
2014-Nov-17 00:33N 36°52' W 026°30'1918.6
2014-Nov-16 23:34N 37°01' W 026°10'1918.7
2014-Nov-16 22:34N 37°11' W 025°50'1918.6
2014-Nov-16 21:33N 37°20' W 025°30'1918.7
2014-Nov-16 20:34N 37°29' W 025°09'1918.6
2014-Nov-16 19:34N 37°41' W 024°51'1919.0
2014-Nov-16 18:34N 37°53' W 024°32'1919.1
2014-Nov-16 17:34N 38°05' W 024°13'  
2014-Nov-13 16:23N 50°00' W 002°58'1315.6
2014-Nov-13 15:33N 50°04' W 002°39'7414.6
2014-Nov-13 10:29N 49°44' W 000°49'1415.5
2014-Nov-13 09:33N 49°38' W 000°29'1616.1
2014-Nov-13 08:34N 49°31' W 000°06'1110.6
2014-Nov-13 07:33N 49°28' E 000°10'0 0.3
2014-Nov-13 06:28N 49°29' E 000°10'0 0.0
2014-Nov-13 05:19N 49°29' E 000°10'0 0.0
2014-Nov-13 04:31N 49°29' E 000°10'0 0.0
2014-Nov-13 03:28N 49°29' E 000°10'0 0.0
2014-Nov-13 02:31N 49°29' E 000°10'0 0.0
2014-Nov-13 01:31N 49°29' E 000°10'0 0.0
2014-Nov-13 00:31N 49°29' E 000°10'0 0.0
2014-Nov-12 23:31N 49°29' E 000°10'0 0.0
2014-Nov-12 22:31N 49°29' E 000°10'  

Dump ship's entire track history